Genoa, Minnesota
Current Conditions -  °F | °C
As of 9:31 AM on Friday 24 Oct 2014 (Local Time) from KEVM Reporting Station
Clear Clear  
Wind Chill: 44°   Ceiling: Unl
Heat Index: 46°   Visibility: 10mi
Dew Point: 45°   Wind: 5mph
Humidity: 93%   Direction: 190°S
Pressure: 29.84"   Gusts: NA
Location:  47.4232°N, 92.5107°W
Report Text: KEVM 241431Z AUTO 19004KT 10SM CLR 08/07 A2984 RMK AO2
Loading
Personal Weather Stations






























Interactive Weather Map
Tropical Storm Tracking
New forecast layout! Learn more

10-Day Weather Forecast

Advertisements
Track Severe Weather on mobile